KAXN/AXN METAR and TAF weather

Enter ICAO airport designator
Station Type Date Time Source
KAXN METAR 2022/01/29 10:53 UTC NOAA

KAXN 291053Z AUTO 15008KT 10SM CLR M14/M16 A2992 RMK AO2 SLP164 T11441161


Station Type Date Time Source
KAXN Decoded METAR 2022/01/29 10:53 UTC NOAA

CHANDLER FIELD, MN, United States (KAXN) 45-52N 095-24W 433M
Jan 29, 2022 - 05:53 AM EST / 2022.01.29 1053 UTC
Wind: from the SSE (150 degrees) at 9 MPH (8 KT):0
Visibility: 10 mile(s):0
Sky conditions: clear
Temperature: 6.1 F (-14.4 C)
Windchill: -7 F (-22 C):2
Dew Point: 3.0 F (-16.1 C)
Relative Humidity: 86%
Pressure (altimeter): 29.92 in. Hg (1013 hPa)
ob: KAXN 291053Z AUTO 15008KT 10SM CLR M14/M16 A2992 RMK AO2 SLP164 T11441161
cycle: 11

Station Type Date Time Source
KAXN TAF 2022/01/29 12:22 UTC NOAA

TAF KAXN 291120Z 2912/3012 15005KT P6SM SCT200
FM291800 29012G19KT P6SM BKN035
FM300100 33009KT P6SM BKN025

Example: see airport list